Time;durP1;ratioP1;P1;durP2;ratioP2;P2;SDS_P1;SDS_P2;PMS_P1;PMS_P2;Temp;Humidity;BMP_temperature;BMP_pressure;BME280_temperature;BME280_humidity;BME280_pressure;Samples;Min_cycle;Max_cycle;Signal;HPM_P1;HPM_P2
2022/12/02 00:02:29;;;;;;;48.50;21.05;;;5.50;99.90;;;;;;5084100;28;20054;-87
2022/12/02 00:05:00;;;;;;;41.83;17.88;;;5.50;99.90;;;;;;5109745;28;20043;-89
2022/12/02 00:07:26;;;;;;;45.60;19.40;;;5.50;99.90;;;;;;5095850;28;20085;-88
2022/12/02 00:09:52;;;;;;;44.55;19.25;;;5.40;99.90;;;;;;5111976;28;20031;-88
2022/12/02 00:12:20;;;;;;;43.42;20.08;;;5.40;99.90;;;;;;5095226;28;20031;-88
2022/12/02 00:14:53;;;;;;;42.45;18.70;;;5.40;99.90;;;;;;5112407;28;20047;-88
2022/12/02 00:17:19;;;;;;;;;;;5.40;99.90;;;;;;5095507;28;20088;-88
2022/12/02 00:19:44;;;;;;;39.95;17.85;;;5.30;99.90;;;;;;5112640;28;19920;-88
2022/12/02 00:22:10;;;;;;;40.88;16.40;;;5.30;99.90;;;;;;5111111;28;20519;-88
2022/12/02 00:24:35;;;;;;;42.45;18.20;;;5.30;99.90;;;;;;5111969;28;20039;-88
2022/12/02 00:27:01;;;;;;;39.17;16.70;;;5.30;99.90;;;;;;5094401;28;20047;-88
2022/12/02 00:29:27;;;;;;;41.38;17.45;;;5.30;99.90;;;;;;5095212;28;20118;-88
2022/12/02 00:31:53;;;;;;;45.42;17.20;;;5.30;99.90;;;;;;5111932;28;20042;-88
2022/12/02 00:34:18;;;;;;;44.22;17.38;;;5.20;99.90;;;;;;5094967;28;20493;-88
2022/12/02 00:36:44;;;;;;;37.50;17.73;;;5.20;99.90;;;;;;5095060;28;20560;-88
2022/12/02 00:39:10;;;;;;;37.33;16.38;;;5.20;99.90;;;;;;5074983;28;20039;-88
2022/12/02 00:41:35;;;;;;;37.42;15.90;;;5.20;99.90;;;;;;5083059;28;20040;-88
2022/12/02 00:46:48;;;;;;;33.10;14.45;;;5.20;99.90;;;;;;5111247;28;20499;-87
2022/12/02 00:49:15;;;;;;;31.77;14.13;;;5.20;99.90;;;;;;5093899;28;20039;-88
2022/12/02 00:51:42;;;;;;;34.75;14.85;;;5.10;99.90;;;;;;5108324;28;20044;-88
2022/12/02 00:54:08;;;;;;;37.92;14.75;;;5.10;99.90;;;;;;5099240;28;20095;-88
2022/12/02 00:56:34;;;;;;;32.38;14.63;;;5.10;99.90;;;;;;5111681;28;20075;-88
2022/12/02 00:59:00;;;;;;;31.83;13.23;;;5.10;99.90;;;;;;5111562;28;20075;-88
2022/12/02 01:01:26;;;;;;;27.63;14.55;;;5.00;99.90;;;;;;5111703;28;20484;-88
2022/12/02 01:03:52;;;;;;;29.33;12.15;;;5.00;99.90;;;;;;5094795;28;20054;-88
2022/12/02 01:06:18;;;;;;;30.75;13.23;;;5.00;99.90;;;;;;5110456;28;20496;-88
2022/12/02 01:08:44;;;;;;;27.55;12.65;;;5.00;99.90;;;;;;5111280;28;20036;-88
2022/12/02 01:11:09;;;;;;;31.40;13.02;;;5.00;99.90;;;;;;5112295;28;20039;-88
2022/12/02 01:13:35;;;;;;;34.45;13.65;;;5.00;99.90;;;;;;5093353;28;20057;-88
2022/12/02 01:16:02;;;;;;;29.17;11.80;;;4.90;99.90;;;;;;5112177;28;20043;-88
2022/12/02 01:18:28;;;;;;;28.27;12.32;;;4.90;99.90;;;;;;5094726;28;20036;-88
2022/12/02 01:20:53;;;;;;;27.63;12.57;;;4.90;99.90;;;;;;5111408;28;20032;-88
2022/12/02 01:23:19;;;;;;;29.10;12.02;;;4.90;99.90;;;;;;5093634;28;20518;-88
2022/12/02 01:25:44;;;;;;;26.90;12.00;;;4.90;99.90;;;;;;5110509;28;20667;-88
2022/12/02 01:28:10;;;;;;;24.23;11.55;;;4.90;99.90;;;;;;5111796;28;20039;-88
2022/12/02 01:30:36;;;;;;;27.52;11.43;;;4.80;99.90;;;;;;5093937;28;20035;-88
2022/12/02 01:33:01;;;;;;;27.40;12.32;;;4.80;99.90;;;;;;5094059;28;20100;-88
2022/12/02 01:35:27;;;;;;;29.48;12.23;;;4.80;99.90;;;;;;5110503;28;20412;-88
2022/12/02 01:37:52;;;;;;;27.20;12.35;;;4.80;99.90;;;;;;5111551;28;20040;-88
2022/12/02 01:40:19;;;;;;;30.45;12.85;;;4.80;99.90;;;;;;5111806;28;20055;-88
2022/12/02 01:42:46;;;;;;;26.05;11.18;;;4.80;99.90;;;;;;5110479;28;20122;-88
2022/12/02 01:45:12;;;;;;;27.30;12.55;;;4.80;99.90;;;;;;5093313;28;20043;-87
2022/12/02 01:47:38;;;;;;;29.30;13.57;;;4.80;99.90;;;;;;5110389;28;20116;-88
2022/12/02 01:50:07;;;;;;;26.17;11.95;;;4.80;99.90;;;;;;5093925;28;20038;-88
2022/12/02 01:52:33;;;;;;;31.52;13.25;;;4.70;99.90;;;;;;5093701;28;20067;-88
2022/12/02 01:54:59;;;;;;;32.28;13.27;;;4.70;99.90;;;;;;5093009;28;20457;-88
2022/12/02 01:57:27;;;;;;;26.05;11.80;;;4.70;99.90;;;;;;5111201;28;20128;-88
2022/12/02 01:59:53;;;;;;;29.02;12.23;;;4.70;99.90;;;;;;5094009;28;20055;-87
2022/12/02 02:02:34;;;;;;;27.85;11.65;;;4.70;99.90;;;;;;5093354;28;20047;-88
2022/12/02 02:05:25;;;;;;;29.45;11.63;;;4.70;99.90;;;;;;5093190;28;20050;-87
2022/12/02 02:07:53;;;;;;;27.17;11.77;;;4.70;99.90;;;;;;5102019;28;20062;-88
2022/12/02 02:10:20;;;;;;;22.23;10.13;;;4.70;99.90;;;;;;5090504;28;20154;-88
2022/12/02 02:12:46;;;;;;;29.17;12.80;;;4.60;99.90;;;;;;5081514;28;20112;-88
2022/12/02 02:15:14;;;;;;;26.70;11.50;;;4.60;99.90;;;;;;5110314;28;20484;-88
2022/12/02 02:17:40;;;;;;;25.15;11.68;;;4.60;99.90;;;;;;5109404;28;20096;-88
2022/12/02 02:20:11;;;;;;;25.73;12.30;;;4.60;99.90;;;;;;5110607;28;20055;-87
2022/12/02 02:22:59;;;;;;;25.75;12.30;;;4.60;99.90;;;;;;5110379;28;20677;-89
2022/12/02 02:25:25;;;;;;;28.85;11.82;;;4.60;99.90;;;;;;5109237;28;20075;-89
2022/12/02 02:27:54;;;;;;;29.17;11.57;;;4.60;99.90;;;;;;5109597;28;20075;-89
2022/12/02 02:30:20;;;;;;;24.33;11.77;;;4.60;99.90;;;;;;5109884;28;20504;-89
2022/12/02 02:32:46;;;;;;;26.48;12.02;;;4.60;99.90;;;;;;5109718;28;20028;-88
2022/12/02 02:35:13;;;;;;;28.80;13.38;;;4.60;99.90;;;;;;5089846;28;20040;-89
2022/12/02 02:37:39;;;;;;;27.90;12.65;;;4.60;99.90;;;;;;5071920;28;20044;-88
2022/12/02 02:40:06;;;;;;;29.83;11.30;;;4.60;99.90;;;;;;5072781;28;20040;-89
2022/12/02 02:42:32;;;;;;;30.10;12.10;;;4.60;99.90;;;;;;5077331;28;20110;-88
2022/12/02 02:44:58;;;;;;;27.98;11.55;;;4.60;99.90;;;;;;5109203;28;20511;-88
2022/12/02 02:47:24;;;;;;;27.08;12.98;;;4.60;99.90;;;;;;5092486;28;20400;-88
2022/12/02 02:49:49;;;;;;;27.35;13.23;;;4.60;99.90;;;;;;5109199;28;20038;-88
2022/12/02 02:52:15;;;;;;;25.05;11.10;;;4.50;99.90;;;;;;5109777;28;20110;-88
2022/12/02 02:54:41;;;;;;;25.83;11.68;;;4.50;99.90;;;;;;5092949;28;20061;-89
2022/12/02 02:57:08;;;;;;;32.38;13.43;;;4.50;99.90;;;;;;5092785;28;20504;-89
2022/12/02 02:59:35;;;;;;;25.48;11.15;;;4.50;99.90;;;;;;5092626;28;20058;-88
2022/12/02 03:02:06;;;;;;;24.67;10.57;;;4.50;99.90;;;;;;5109081;28;20398;-88
2022/12/02 03:04:32;;;;;;;26.67;11.38;;;4.50;99.90;;;;;;5109824;28;20061;-89
2022/12/02 03:06:58;;;;;;;27.33;11.50;;;4.50;99.90;;;;;;5091338;28;20036;-89
2022/12/02 03:09:24;;;;;;;25.42;11.50;;;4.50;99.90;;;;;;5092361;28;20035;-88
2022/12/02 03:11:53;;;;;;;29.75;12.18;;;4.50;99.90;;;;;;5104823;28;20123;-89
2022/12/02 03:14:20;;;;;;;31.08;12.02;;;4.50;99.90;;;;;;5105636;28;20044;-88
2022/12/02 03:16:47;;;;;;;24.00;10.32;;;4.50;99.90;;;;;;5109102;28;20075;-89
2022/12/02 03:19:13;;;;;;;28.23;12.15;;;4.50;99.90;;;;;;5109743;28;20044;-89
2022/12/02 03:21:39;;;;;;;26.75;11.75;;;4.50;99.90;;;;;;5109454;28;20043;-89
2022/12/02 03:24:05;;;;;;;29.00;11.52;;;4.50;99.90;;;;;;5107900;28;20045;-88
2022/12/02 03:26:32;;;;;;;27.90;11.93;;;4.50;99.90;;;;;;5108925;28;20040;-89
2022/12/02 03:28:58;;;;;;;27.65;12.48;;;4.40;99.90;;;;;;5109047;28;20070;-88
2022/12/02 03:31:25;;;;;;;28.20;13.43;;;4.40;99.90;;;;;;5109748;28;20032;-89
2022/12/02 03:33:51;;;;;;;29.10;13.18;;;4.50;99.90;;;;;;5092191;28;20036;-89
2022/12/02 03:36:16;;;;;;;32.42;13.25;;;4.50;99.90;;;;;;5108561;28;20401;-89
2022/12/02 03:38:43;;;;;;;26.60;12.43;;;4.40;99.90;;;;;;5109677;28;20134;-89
2022/12/02 03:41:09;;;;;;;31.95;12.48;;;4.50;99.90;;;;;;5092673;28;20517;-89
2022/12/02 03:43:35;;;;;;;27.63;12.75;;;4.50;99.90;;;;;;5108172;28;20044;-89
2022/12/02 03:46:02;;;;;;;27.95;12.27;;;4.50;99.90;;;;;;5108869;28;20412;-89
2022/12/02 03:48:28;;;;;;;23.27;11.95;;;4.40;99.90;;;;;;5108491;28;20080;-89
2022/12/02 03:50:55;;;;;;;26.50;11.75;;;4.40;99.90;;;;;;5077449;28;20040;-89
2022/12/02 03:53:21;;;;;;;27.85;11.10;;;4.40;99.90;;;;;;5088573;28;20067;-89
2022/12/02 03:55:48;;;;;;;32.95;14.60;;;4.40;99.90;;;;;;5107350;28;20070;-89
2022/12/02 03:58:14;;;;;;;27.35;12.00;;;4.40;99.90;;;;;;5092787;28;20035;-89
2022/12/02 04:00:39;;;;;;;29.58;12.57;;;4.40;99.90;;;;;;5108384;28;20092;-89
2022/12/02 04:03:05;;;;;;;25.17;12.00;;;4.40;99.90;;;;;;5091694;28;20044;-89
2022/12/02 04:05:31;;;;;;;28.65;12.63;;;4.40;99.90;;;;;;5108646;28;20130;-89
2022/12/02 04:07:56;;;;;;;29.05;12.52;;;4.40;99.90;;;;;;5090589;28;20027;-89
2022/12/02 04:10:22;;;;;;;31.30;13.38;;;4.40;99.90;;;;;;5109041;28;20544;-88
2022/12/02 04:12:48;;;;;;;29.45;12.48;;;4.40;99.90;;;;;;5108781;28;20517;-88
2022/12/02 04:15:14;;;;;;;28.10;12.23;;;4.40;99.90;;;;;;5107770;28;20039;-89
2022/12/02 04:17:39;;;;;;;30.75;12.55;;;4.40;99.90;;;;;;5092154;28;20042;-89
2022/12/02 04:20:07;;;;;;;28.95;12.68;;;4.40;99.90;;;;;;5092240;28;20032;-89
2022/12/02 04:22:32;;;;;;;27.15;11.82;;;4.30;99.90;;;;;;5108541;28;20051;-89
2022/12/02 04:24:59;;;;;;;29.23;12.75;;;4.30;99.90;;;;;;5091476;28;20043;-89
2022/12/02 04:27:25;;;;;;;27.27;11.23;;;4.30;99.90;;;;;;5090710;28;20504;-89
2022/12/02 04:29:51;;;;;;;27.92;13.07;;;4.30;99.90;;;;;;5109239;28;20032;-89
2022/12/02 04:32:17;;;;;;;24.80;11.63;;;4.30;99.90;;;;;;5108006;28;20522;-89
2022/12/02 04:34:43;;;;;;;25.08;11.25;;;4.30;99.90;;;;;;5108044;28;20040;-89
2022/12/02 04:37:08;;;;;;;26.80;12.95;;;4.30;99.90;;;;;;5108922;28;20051;-89
2022/12/02 04:39:34;;;;;;;31.05;12.90;;;4.30;99.90;;;;;;5105478;28;20067;-89
2022/12/02 04:42:00;;;;;;;31.55;13.27;;;4.30;99.90;;;;;;5091691;28;20408;-89
2022/12/02 04:44:25;;;;;;;24.60;11.82;;;4.30;99.90;;;;;;5096842;28;20123;-89
2022/12/02 04:46:51;;;;;;;33.10;13.77;;;4.30;99.90;;;;;;5111035;28;20040;-89
2022/12/02 04:49:17;;;;;;;33.92;14.65;;;4.30;99.90;;;;;;5111552;28;20463;-89
2022/12/02 04:51:42;;;;;;;32.65;13.93;;;4.20;99.90;;;;;;5089547;28;20044;-89
2022/12/02 04:54:08;;;;;;;33.75;13.43;;;4.20;99.90;;;;;;5091747;28;20051;-89
2022/12/02 04:56:33;;;;;;;30.05;13.50;;;4.20;99.90;;;;;;5100072;28;20459;-89
2022/12/02 04:58:59;;;;;;;31.35;13.45;;;4.20;99.90;;;;;;5092240;28;20040;-89
2022/12/02 05:01:26;;;;;;;31.50;13.75;;;4.20;99.90;;;;;;5085494;28;20055;-89
2022/12/02 05:03:51;;;;;;;29.20;13.63;;;4.20;99.90;;;;;;5111759;28;20138;-88
2022/12/02 05:06:17;;;;;;;29.25;14.07;;;4.20;99.90;;;;;;5094500;28;20043;-88
2022/12/02 05:08:42;;;;;;;31.25;13.55;;;4.20;99.90;;;;;;5093885;28;20089;-89
2022/12/02 05:11:08;;;;;;;33.25;13.02;;;4.20;99.90;;;;;;5112024;28;20085;-88
2022/12/02 05:13:34;;;;;;;32.13;14.55;;;4.20;99.90;;;;;;5094520;28;20027;-88
2022/12/02 05:15:59;;;;;;;34.22;14.20;;;4.10;99.90;;;;;;5111292;28;20115;-88
2022/12/02 05:18:25;;;;;;;25.88;12.32;;;4.20;99.90;;;;;;5111948;28;20085;-89
2022/12/02 05:20:51;;;;;;;32.70;14.20;;;4.20;99.90;;;;;;5093954;28;20035;-88
2022/12/02 05:23:16;;;;;;;32.90;13.82;;;4.10;99.90;;;;;;5094501;28;20032;-89
2022/12/02 05:25:42;;;;;;;34.10;13.32;;;4.10;99.90;;;;;;5110506;28;20489;-88
2022/12/02 05:28:07;;;;;;;33.95;14.57;;;4.10;99.90;;;;;;5093802;28;20044;-88
2022/12/02 05:30:33;;;;;;;33.05;14.32;;;4.10;99.90;;;;;;5110980;28;20032;-88
2022/12/02 05:32:59;;;;;;;35.08;14.02;;;4.10;99.90;;;;;;5110913;28;20036;-88
2022/12/02 05:35:24;;;;;;;36.75;15.40;;;4.10;99.90;;;;;;5110915;28;20043;-88
2022/12/02 05:37:50;;;;;;;36.22;14.52;;;4.10;99.90;;;;;;5110626;28;20088;-88
2022/12/02 05:40:16;;;;;;;39.03;13.05;;;4.00;99.90;;;;;;5111227;28;20050;-88
2022/12/02 05:42:42;;;;;;;35.42;13.95;;;4.00;99.90;;;;;;5111004;28;20517;-88
2022/12/02 05:45:25;;;;;;;34.85;14.38;;;4.10;99.90;;;;;;5107066;28;20381;-89
2022/12/02 05:47:54;;;;;;;36.13;14.90;;;4.10;99.90;;;;;;5110261;28;20046;-88
2022/12/02 05:50:21;;;;;;;38.83;15.30;;;4.10;99.90;;;;;;5110112;28;20031;-88
2022/12/02 05:52:50;;;;;;;37.53;15.18;;;4.10;99.90;;;;;;5109568;28;20511;-88
2022/12/02 05:55:18;;;;;;;35.35;15.88;;;4.00;99.90;;;;;;5109620;28;20036;-88
2022/12/02 05:57:45;;;;;;;35.42;14.48;;;4.00;99.90;;;;;;5109893;28;20047;-88
2022/12/02 06:00:20;;;;;;;35.92;15.35;;;4.00;99.90;;;;;;5090467;28;20047;-88
2022/12/02 06:02:50;;;;;;;34.08;14.27;;;4.10;99.90;;;;;;5089539;28;20051;-88
2022/12/02 06:05:22;;;;;;;37.00;15.60;;;4.10;99.90;;;;;;5092230;28;20071;-88
2022/12/02 06:07:51;;;;;;;33.75;14.73;;;4.10;99.90;;;;;;5091745;28;20044;-88
2022/12/02 06:10:37;;;;;;;34.85;14.82;;;4.10;99.90;;;;;;5110663;28;20077;-89
2022/12/02 06:13:36;;;;;;;36.33;14.60;;;4.10;99.90;;;;;;5087718;28;20755;-88
2022/12/02 06:16:05;;;;;;;37.63;13.40;;;4.10;99.90;;;;;;5073529;28;20054;-88
2022/12/02 06:18:34;;;;;;;38.92;15.60;;;4.00;99.90;;;;;;5109578;28;20031;-89
2022/12/02 06:21:11;;;;;;;36.25;15.25;;;4.00;99.90;;;;;;5100625;28;20032;-89
2022/12/02 06:23:42;;;;;;;32.78;12.70;;;4.10;99.90;;;;;;5071982;28;20040;-89
2022/12/02 06:26:07;;;;;;;40.10;15.75;;;4.10;99.90;;;;;;5104551;28;20044;-88
2022/12/02 06:28:43;;;;;;;38.33;15.45;;;4.10;99.90;;;;;;5108967;28;20046;-89
2022/12/02 06:31:32;;;;;;;37.75;14.45;;;4.10;99.90;;;;;;5102482;28;20032;-88
2022/12/02 06:34:04;;;;;;;37.83;14.65;;;4.10;99.90;;;;;;5071866;28;20039;-88
2022/12/02 06:36:32;;;;;;;37.10;15.68;;;4.10;99.90;;;;;;5102746;28;20039;-89
2022/12/02 06:39:11;;;;;;;39.90;14.80;;;4.10;99.90;;;;;;5092740;28;20043;-88
2022/12/02 06:41:37;;;;;;;39.53;15.70;;;4.10;99.90;;;;;;5108566;28;20085;-88
2022/12/02 06:47:19;;;;;;;34.78;14.80;;;4.10;99.90;;;;;;5108178;28;20043;-89
2022/12/02 06:49:44;;;;;;;38.55;15.85;;;4.10;99.90;;;;;;5092543;28;20497;-88
2022/12/02 06:52:20;;;;;;;42.47;17.73;;;4.10;99.90;;;;;;5108684;28;20065;-88
2022/12/02 06:54:46;;;;;;;41.90;16.45;;;4.10;99.90;;;;;;5092480;28;20035;-88
2022/12/02 06:57:17;;;;;;;37.97;15.75;;;4.10;99.90;;;;;;5108572;28;20454;-88
2022/12/02 06:59:47;;;;;;;38.80;16.23;;;4.10;99.90;;;;;;5108467;28;20088;-88
2022/12/02 07:02:25;;;;;;;36.28;16.85;;;4.10;99.90;;;;;;5091551;28;20496;-88
2022/12/02 07:04:51;;;;;;;37.70;15.23;;;4.00;99.90;;;;;;5108149;28;20074;-89
2022/12/02 07:07:26;;;;;;;44.17;17.35;;;4.00;99.90;;;;;;5091224;28;20032;-89
2022/12/02 07:09:54;;;;;;;41.20;15.30;;;4.00;99.90;;;;;;5107964;28;20034;-88
2022/12/02 07:12:24;;;;;;;36.47;15.85;;;4.00;99.90;;;;;;5091277;28;20084;-88
2022/12/02 07:14:52;;;;;;;40.28;17.10;;;4.00;99.90;;;;;;5070821;28;20040;-88
2022/12/02 07:17:26;;;;;;;39.85;16.40;;;4.00;99.90;;;;;;5083606;28;20082;-88
2022/12/02 07:20:14;;;;;;;40.00;17.23;;;4.00;99.90;;;;;;5108512;28;20096;-87
2022/12/02 07:22:48;;;;;;;41.53;17.95;;;4.00;99.90;;;;;;5099334;28;20040;-89
2022/12/02 07:25:26;;;;;;;40.60;16.20;;;4.00;99.90;;;;;;5088485;28;20110;-88
2022/12/02 07:27:52;;;;;;;44.97;18.08;;;4.00;99.90;;;;;;5078566;28;20504;-89
2022/12/02 07:30:38;;;;;;;41.28;16.25;;;4.00;99.90;;;;;;5108624;28;20565;-88
2022/12/02 07:33:04;;;;;;;40.72;16.98;;;4.00;99.90;;;;;;5108479;28;20032;-88
2022/12/02 07:35:29;;;;;;;41.30;16.73;;;4.00;99.90;;;;;;5108254;28;20032;-88
2022/12/02 07:37:56;;;;;;;34.22;15.65;;;3.90;99.90;;;;;;5108170;28;20554;-88
2022/12/02 07:40:22;;;;;;;40.92;16.95;;;3.90;99.90;;;;;;5090308;28;20044;-88
2022/12/02 07:42:48;;;;;;;42.75;16.25;;;3.90;99.90;;;;;;5091133;28;20397;-88
2022/12/02 07:45:17;;;;;;;43.95;16.60;;;4.00;99.90;;;;;;5106754;28;20036;-89
2022/12/02 07:47:43;;;;;;;38.70;16.70;;;4.00;99.90;;;;;;5090083;28;20031;-88
2022/12/02 07:50:10;;;;;;;38.00;16.77;;;3.90;99.90;;;;;;5091366;28;20570;-88
2022/12/02 07:52:36;;;;;;;44.83;17.90;;;3.90;99.90;;;;;;5090355;28;20059;-88
2022/12/02 07:55:02;;;;;;;41.47;16.95;;;3.90;99.90;;;;;;5090763;28;20497;-88
2022/12/02 07:57:28;;;;;;;41.65;17.92;;;4.00;99.90;;;;;;5108322;28;20555;-88
2022/12/02 07:59:54;;;;;;;42.88;18.08;;;3.90;99.90;;;;;;5107401;28;20043;-88
2022/12/02 08:02:20;;;;;;;39.78;18.05;;;4.00;99.90;;;;;;5099069;28;20032;-88
2022/12/02 08:04:45;;;;;;;37.00;16.98;;;4.00;99.90;;;;;;5088488;28;20045;-88
2022/12/02 08:07:11;;;;;;;41.97;17.63;;;4.00;99.90;;;;;;5071207;28;20098;-88
2022/12/02 08:09:36;;;;;;;37.95;14.75;;;4.00;99.90;;;;;;5087141;28;20040;-88
2022/12/02 08:12:03;;;;;;;37.70;17.10;;;4.00;99.90;;;;;;5067265;28;20584;-88
2022/12/02 08:14:28;;;;;;;45.53;17.50;;;4.00;99.90;;;;;;5108342;28;20039;-88
2022/12/02 08:16:55;;;;;;;35.50;14.85;;;4.00;99.90;;;;;;5111231;28;20040;-88
2022/12/02 08:19:20;;;;;;;36.22;15.80;;;4.00;99.90;;;;;;5094508;28;20067;-88
2022/12/02 08:21:46;;;;;;;42.38;17.55;;;4.00;99.90;;;;;;5112764;28;20082;-88
2022/12/02 08:24:11;;;;;;;41.28;17.67;;;3.90;99.90;;;;;;5111929;28;20039;-88
2022/12/02 08:26:37;;;;;;;45.97;17.17;;;4.00;99.90;;;;;;5113035;28;20629;-87
2022/12/02 08:29:03;;;;;;;44.72;17.80;;;3.90;99.90;;;;;;5093576;28;20036;-88
2022/12/02 08:31:28;;;;;;;43.40;17.70;;;3.90;99.90;;;;;;5092143;28;20490;-88
2022/12/02 08:33:54;;;;;;;43.75;18.15;;;3.90;99.90;;;;;;5076428;28;20043;-88
2022/12/02 08:36:20;;;;;;;43.95;19.13;;;4.00;99.90;;;;;;5112353;28;20035;-89
2022/12/02 08:38:47;;;;;;;40.88;18.40;;;3.90;99.90;;;;;;5095870;28;20035;-88
2022/12/02 08:41:14;;;;;;;44.20;19.35;;;3.90;99.90;;;;;;5111334;28;20092;-88
2022/12/02 08:43:39;;;;;;;39.92;18.30;;;3.90;99.90;;;;;;5095252;28;20040;-88
2022/12/02 08:46:06;;;;;;;46.45;19.00;;;3.90;99.90;;;;;;5095021;28;20039;-88
2022/12/02 08:48:31;;;;;;;47.75;19.38;;;3.90;99.90;;;;;;5111992;28;20405;-88
2022/12/02 08:50:57;;;;;;;49.03;20.27;;;3.90;99.90;;;;;;5112357;28;20035;-88
2022/12/02 08:53:23;;;;;;;39.28;16.40;;;3.90;99.90;;;;;;5101259;28;20085;-87
2022/12/02 08:55:48;;;;;;;48.15;18.98;;;3.90;99.90;;;;;;5072505;28;20060;-87
2022/12/02 08:58:14;;;;;;;41.45;18.30;;;3.90;99.90;;;;;;5092416;28;20471;-87
2022/12/02 09:00:40;;;;;;;48.58;18.05;;;4.00;99.90;;;;;;5089598;28;20047;-88
2022/12/02 09:03:07;;;;;;;46.58;18.77;;;4.00;99.90;;;;;;5091558;28;20432;-88
2022/12/02 09:05:34;;;;;;;46.20;18.58;;;4.00;99.90;;;;;;5103670;28;20040;-88
2022/12/02 09:07:59;;;;;;;45.33;16.52;;;4.00;99.90;;;;;;5111952;28;20560;-88
2022/12/02 09:10:25;;;;;;;45.92;18.42;;;4.00;99.90;;;;;;5112109;28;20165;-88
2022/12/02 09:12:52;;;;;;;45.20;17.10;;;4.00;99.90;;;;;;5111355;28;20119;-88
2022/12/02 09:15:19;;;;;;;45.85;18.00;;;4.00;99.90;;;;;;5094630;28;20039;-88
2022/12/02 09:17:45;;;;;;;40.55;16.92;;;4.00;99.90;;;;;;5112012;28;20043;-88
2022/12/02 09:20:11;;;;;;;46.20;18.45;;;4.00;99.90;;;;;;5112412;28;20123;-88
2022/12/02 09:22:37;;;;;;;42.28;17.35;;;4.00;99.90;;;;;;5105307;28;20069;-88
2022/12/02 09:25:03;;;;;;;42.22;16.80;;;4.10;99.90;;;;;;5091237;28;20581;-88
2022/12/02 09:27:29;;;;;;;47.60;16.90;;;4.00;99.90;;;;;;5092893;28;20044;-88
2022/12/02 09:29:55;;;;;;;44.45;17.48;;;4.10;99.90;;;;;;5111428;28;20040;-88
2022/12/02 09:32:20;;;;;;;50.08;18.00;;;4.10;99.90;;;;;;5111913;28;20035;-88
2022/12/02 09:34:46;;;;;;;42.38;17.10;;;4.10;99.90;;;;;;5101436;28;20089;-88
2022/12/02 09:37:12;;;;;;;43.60;17.83;;;4.00;99.90;;;;;;5094633;28;20164;-88
2022/12/02 09:39:37;;;;;;;36.10;15.98;;;4.10;99.90;;;;;;5095070;28;20062;-89
2022/12/02 09:42:03;;;;;;;35.65;15.43;;;4.10;99.90;;;;;;5111002;28;20396;-86
2022/12/02 09:44:30;;;;;;;32.55;13.88;;;4.10;99.90;;;;;;5111604;28;20811;-86
2022/12/02 09:46:56;;;;;;;37.47;15.30;;;4.00;99.90;;;;;;5080553;28;20036;-86
2022/12/02 09:49:22;;;;;;;38.22;15.88;;;4.00;99.90;;;;;;5090597;28;20071;-86
2022/12/02 09:51:48;;;;;;;35.53;14.27;;;4.00;99.90;;;;;;5090371;28;20039;-85
2022/12/02 09:54:15;;;;;;;28.23;13.02;;;3.90;99.90;;;;;;5093684;28;20031;-86
2022/12/02 09:56:41;;;;;;;29.23;12.77;;;3.90;99.90;;;;;;5111238;28;20047;-86
2022/12/02 09:59:16;;;;;;;32.95;13.40;;;3.80;99.90;;;;;;5094229;28;20408;-87
2022/12/02 10:01:46;;;;;;;35.72;13.95;;;3.80;99.90;;;;;;5111596;28;20046;-87
2022/12/02 10:04:19;;;;;;;30.65;11.45;;;3.80;99.90;;;;;;5094126;28;20036;-87
2022/12/02 10:06:45;;;;;;;29.15;13.15;;;3.80;99.90;;;;;;5111736;28;20423;-87
2022/12/02 10:09:27;;;;;;;36.28;13.07;;;3.80;99.90;;;;;;5109811;28;20122;-93
2022/12/02 10:11:53;;;;;;;38.90;15.32;;;3.80;99.90;;;;;;5109439;28;20044;-87
2022/12/02 10:14:18;;;;;;;35.92;14.50;;;3.90;99.90;;;;;;5093388;28;20020;-86
2022/12/02 10:16:44;;;;;;;34.47;15.50;;;3.80;99.90;;;;;;5093217;28;20706;-87
2022/12/02 10:19:16;;;;;;;34.38;14.23;;;3.80;99.90;;;;;;5094124;28;20036;-88
2022/12/02 10:21:42;;;;;;;33.55;13.02;;;3.80;99.90;;;;;;5110873;28;20043;-86
2022/12/02 10:24:08;;;;;;;34.97;13.57;;;3.80;99.90;;;;;;5094064;28;20127;-85
2022/12/02 10:26:52;;;;;;;36.42;14.77;;;3.80;99.90;;;;;;5110091;28;20043;-86
2022/12/02 10:29:29;;;;;;;29.83;13.05;;;3.80;99.90;;;;;;5093305;28;20501;-86
2022/12/02 10:31:59;;;;;;;35.42;13.90;;;3.80;99.90;;;;;;5092620;28;20408;-86
2022/12/02 10:34:27;;;;;;;31.33;12.77;;;3.80;99.90;;;;;;5092954;28;20069;-86
2022/12/02 10:36:53;;;;;;;34.53;13.93;;;3.80;99.90;;;;;;5110382;28;20040;-85
2022/12/02 10:39:34;;;;;;;33.35;13.32;;;3.80;99.90;;;;;;5106093;28;20433;-85
2022/12/02 10:42:03;;;;;;;29.20;12.45;;;3.80;99.90;;;;;;5090020;28;20040;-85
2022/12/02 10:44:29;;;;;;;31.58;12.63;;;3.80;99.90;;;;;;5098877;28;20050;-86
2022/12/02 10:47:15;;;;;;;32.80;13.20;;;3.80;99.90;;;;;;5110566;28;20042;-85
2022/12/02 10:50:15;;;;;;;30.40;13.10;;;3.70;99.90;;;;;;5092740;28;20488;-86
2022/12/02 10:52:49;;;;;;;33.17;12.60;;;3.70;99.90;;;;;;5092697;28;20114;-86
2022/12/02 10:55:16;;;;;;;38.42;14.32;;;3.70;99.90;;;;;;5092201;28;20036;-86
2022/12/02 10:57:43;;;;;;;31.70;13.63;;;3.70;99.90;;;;;;5092752;28;20051;-87
2022/12/02 11:00:20;;;;;;;32.40;13.43;;;3.70;99.90;;;;;;5110407;28;20516;-86
2022/12/02 11:02:57;;;;;;;37.55;14.63;;;3.70;99.90;;;;;;5089547;28;20076;-86
2022/12/02 11:05:32;;;;;;;40.38;15.50;;;3.70;99.90;;;;;;5090360;28;20526;-86
2022/12/02 11:08:05;;;;;;;35.88;15.27;;;3.70;99.90;;;;;;5089150;28;20043;-86
2022/12/02 11:10:40;;;;;;;35.25;15.70;;;3.70;99.90;;;;;;5109418;28;20040;-86
2022/12/02 11:13:11;;;;;;;35.30;14.80;;;3.70;99.90;;;;;;5108687;28;20044;-85
2022/12/02 11:15:40;;;;;;;37.17;15.80;;;3.70;99.90;;;;;;5092078;28;20040;-86
2022/12/02 11:18:27;;;;;;;39.08;16.33;;;3.70;99.90;;;;;;5110013;28;20081;-86
2022/12/02 11:20:55;;;;;;;44.13;18.40;;;3.70;99.90;;;;;;5057552;28;20185;-86
2022/12/02 11:23:31;;;;;;;44.47;17.38;;;3.70;99.90;;;;;;5088667;28;20505;-86
2022/12/02 11:26:00;;;;;;;41.92;17.77;;;3.70;99.90;;;;;;5109385;28;20054;-87
2022/12/02 11:28:29;;;;;;;40.55;17.77;;;3.70;99.90;;;;;;5110076;28;20032;-87
2022/12/02 11:31:10;;;;;;;46.58;19.10;;;3.70;99.90;;;;;;5091909;28;20058;-87
2022/12/02 11:33:48;;;;;;;42.08;18.15;;;3.70;99.90;;;;;;5100962;28;20036;-87
2022/12/02 11:36:13;;;;;;;37.47;16.35;;;3.70;99.90;;;;;;5106501;28;20068;-87
2022/12/02 11:38:51;;;;;;;37.63;16.70;;;3.70;99.90;;;;;;5072454;28;20032;-86
2022/12/02 11:41:29;;;;;;;47.55;19.77;;;3.70;99.90;;;;;;5078492;28;20040;-87
2022/12/02 11:44:21;;;;;;;45.88;19.65;;;3.70;99.90;;;;;;5108613;28;20031;-89
2022/12/02 11:46:50;;;;;;;46.63;19.23;;;3.70;99.90;;;;;;5092396;28;20455;-87
2022/12/02 11:49:27;;;;;;;49.33;19.30;;;3.70;99.90;;;;;;5052364;28;20044;-87
2022/12/02 11:52:05;;;;;;;44.28;20.88;;;3.70;99.90;;;;;;5106030;28;20520;-87
2022/12/02 11:54:30;;;;;;;42.40;18.48;;;3.70;99.90;;;;;;5103366;28;20118;-87
2022/12/02 11:56:57;;;;;;;47.15;21.17;;;3.70;99.90;;;;;;5113077;28;20135;-87
2022/12/02 11:59:26;;;;;;;45.35;19.45;;;3.80;99.90;;;;;;5095769;28;20039;-87
2022/12/02 12:02:13;;;;;;;43.80;18.67;;;3.80;99.90;;;;;;5113932;28;20062;-87
2022/12/02 12:04:39;;;;;;;44.22;17.63;;;3.80;99.90;;;;;;5096627;28;20042;-87
2022/12/02 12:07:04;;;;;;;47.58;19.27;;;3.80;99.90;;;;;;5095531;28;20039;-87
2022/12/02 12:09:30;;;;;;;45.97;18.92;;;3.80;99.90;;;;;;5112257;28;20074;-86
2022/12/02 12:12:17;;;;;;;46.20;20.98;;;3.80;99.90;;;;;;5095575;28;20115;-87
2022/12/02 12:15:12;;;;;;;51.47;20.85;;;3.80;99.90;;;;;;5112949;28;20048;-87
2022/12/02 12:17:38;;;;;;;49.13;20.95;;;3.80;99.90;;;;;;5088918;28;20130;-87
2022/12/02 12:20:05;;;;;;;50.03;20.10;;;3.80;99.90;;;;;;5092767;28;20130;-86
2022/12/02 12:22:30;;;;;;;53.47;20.48;;;3.90;99.90;;;;;;5078644;28;20103;-87
2022/12/02 12:25:30;;;;;;;42.78;20.17;;;3.90;99.90;;;;;;5112798;28;20434;-86
2022/12/02 12:27:55;;;;;;;49.20;22.63;;;3.80;99.90;;;;;;5096202;28;20048;-86
2022/12/02 12:30:21;;;;;;;51.35;22.60;;;3.80;99.90;;;;;;5094536;28;20031;-87
2022/12/02 12:32:47;;;;;;;52.17;22.25;;;3.80;99.90;;;;;;5112405;28;20062;-87
2022/12/02 12:35:12;;;;;;;51.38;22.27;;;3.80;99.90;;;;;;5095554;28;20043;-87
2022/12/02 12:37:38;;;;;;;49.85;21.75;;;3.80;99.90;;;;;;5091701;28;20031;-87
2022/12/02 12:40:04;;;;;;;47.95;21.98;;;3.80;99.90;;;;;;5110151;28;20036;-87
2022/12/02 12:42:29;;;;;;;55.45;21.98;;;3.80;99.90;;;;;;5102991;28;20126;-87
2022/12/02 12:44:55;;;;;;;49.95;21.02;;;3.80;99.90;;;;;;5083820;28;20729;-88
2022/12/02 12:47:20;;;;;;;50.30;21.13;;;3.80;99.90;;;;;;5091878;28;20540;-88
2022/12/02 12:49:46;;;;;;;50.90;21.67;;;3.80;99.90;;;;;;5111290;28;20036;-87
2022/12/02 12:52:11;;;;;;;50.72;21.13;;;3.80;99.90;;;;;;5112338;28;20092;-88